Ionia, Missouri
Current Conditions -  °F | °C
As of 7:53 AM on Friday 28 Nov 2014 (Local Time) from KDMO Reporting Station
Clear Clear  
Wind Chill: 29°   Ceiling: Unl
Heat Index: 38°   Visibility: 10mi
Dew Point: 26°   Wind: 17mph
Humidity: 62%   Direction: 180°S
Pressure: 30.05"   Gusts: 26mph
Location:  38.5°N, 93.32°W
Report Text: KDMO 281353Z AUTO 18015G23KT 10SM CLR 03/M03 A3005 RMK AO2 SLP184 T00331033
Loading
Personal Weather Stations






























Interactive Weather Map New forecast layout! Learn more

10-Day Weather Forecast

Advertisements
Track Severe Weather on mobile